createdAt,value
2017-11-15T00:00:24.392Z,54.73
2017-11-15T00:02:27.844Z,59.17
2017-11-15T00:04:30.480Z,56.53
2017-11-15T00:06:33.150Z,57.33
2017-11-15T00:08:35.815Z,54.83
2017-11-15T00:10:39.235Z,58.23
2017-11-15T00:12:41.908Z,57.00
2017-11-15T00:14:44.570Z,64.50
2017-11-15T00:16:47.239Z,61.83
2017-11-15T00:18:50.658Z,61.77
2017-11-15T00:20:53.317Z,61.80
2017-11-15T00:22:55.977Z,62.87
2017-11-15T00:24:59.414Z,61.00
2017-11-15T00:27:02.078Z,54.93
2017-11-15T00:29:04.708Z,71.13
2017-11-15T00:31:08.137Z,56.60
2017-11-15T00:33:10.784Z,56.87
2017-11-15T00:35:14.188Z,58.47
2017-11-15T00:37:16.853Z,59.67
2017-11-15T00:39:20.281Z,61.10
2017-11-15T00:41:22.938Z,59.27
2017-11-15T00:43:25.623Z,64.73
2017-11-15T00:45:28.328Z,62.03
2017-11-15T00:47:30.981Z,64.53
2017-11-15T00:49:33.747Z,62.00
2017-11-15T00:51:36.395Z,63.83
2017-11-15T00:53:39.813Z,58.90
2017-11-15T00:55:42.487Z,60.53
2017-11-15T00:57:45.123Z,67.33
2017-11-15T00:59:48.572Z,58.60
2017-11-15T01:01:51.231Z,57.10
2017-11-15T01:03:53.901Z,63.40
2017-11-15T01:05:56.575Z,66.50
2017-11-15T01:07:59.238Z,65.20
2017-11-15T01:10:01.902Z,62.63
2017-11-15T01:12:05.373Z,62.30
2017-11-15T01:14:08.082Z,62.13
2017-11-15T01:16:10.741Z,57.67
2017-11-15T01:18:14.194Z,62.10
2017-11-15T01:20:16.819Z,60.63
2017-11-15T01:22:19.476Z,66.13
2017-11-15T01:24:22.161Z,65.37
2017-11-15T01:26:25.585Z,67.97
2017-11-15T01:28:28.247Z,58.87
2017-11-15T01:30:30.942Z,63.53
2017-11-15T01:32:33.608Z,58.00
2017-11-15T01:34:36.263Z,62.13
2017-11-15T01:36:38.925Z,53.23
2017-11-15T01:38:42.321Z,56.23
2017-11-15T01:40:45.748Z,54.37
2017-11-15T01:42:48.443Z,56.77
2017-11-15T01:44:51.088Z,53.70
2017-11-15T01:46:53.741Z,52.33
2017-11-15T01:48:57.169Z,50.90
2017-11-15T01:50:59.839Z,54.40
2017-11-15T01:53:02.547Z,51.50
2017-11-15T01:55:05.237Z,49.00
2017-11-15T01:57:07.960Z,54.10
2017-11-15T01:59:11.427Z,57.73
2017-11-15T02:01:14.905Z,59.73
2017-11-15T02:03:17.724Z,54.20
2017-11-15T02:05:20.392Z,55.23
2017-11-15T02:07:23.042Z,51.07
2017-11-15T02:09:26.450Z,51.43
2017-11-15T02:11:29.133Z,51.17
2017-11-15T02:13:32.643Z,53.13
2017-11-15T02:15:35.325Z,58.23
2017-11-15T02:17:37.974Z,65.30
2017-11-15T02:19:40.641Z,50.80
2017-11-15T02:21:44.194Z,61.43
2017-11-15T02:23:46.893Z,57.47
2017-11-15T02:25:49.572Z,49.33
2017-11-15T02:27:52.292Z,69.90
2017-11-15T02:29:55.011Z,56.20
2017-11-15T02:31:57.730Z,58.40
2017-11-15T02:34:00.406Z,55.37
2017-11-15T02:36:03.117Z,60.60
2017-11-15T02:38:05.759Z,52.83
2017-11-15T02:40:08.458Z,49.17
2017-11-15T02:42:11.209Z,54.20
2017-11-15T02:44:13.905Z,60.07
2017-11-15T02:46:16.603Z,60.33
2017-11-15T02:48:19.316Z,61.77
2017-11-15T02:50:22.781Z,56.93
2017-11-15T02:52:25.476Z,58.27
2017-11-15T02:54:28.179Z,56.87
2017-11-15T02:56:30.875Z,61.70
2017-11-15T02:58:33.648Z,59.80
2017-11-15T03:00:36.355Z,59.13
2017-11-15T03:02:39.000Z,58.90
2017-11-15T03:04:41.645Z,66.87
2017-11-15T03:06:45.084Z,61.03
2017-11-15T03:08:47.761Z,59.50
2017-11-15T03:10:50.523Z,63.80
2017-11-15T03:12:53.173Z,62.10
2017-11-15T03:14:55.852Z,63.70
2017-11-15T03:16:58.523Z,59.97
2017-11-15T03:19:01.186Z,62.20
2017-11-15T03:21:10.485Z,59.03
2017-11-15T03:23:13.147Z,62.93
2017-11-15T03:25:15.805Z,71.07
2017-11-15T03:27:18.464Z,62.63
2017-11-15T03:29:21.123Z,55.13
2017-11-15T03:31:23.805Z,64.93
2017-11-15T03:33:26.482Z,62.63
2017-11-15T03:35:29.167Z,59.97
2017-11-15T03:37:31.846Z,56.80
2017-11-15T03:39:34.500Z,60.67
2017-11-15T03:41:37.202Z,60.67
2017-11-15T03:43:39.867Z,61.63
2017-11-15T03:45:42.518Z,64.13
2017-11-15T03:47:45.958Z,57.80
2017-11-15T03:49:48.634Z,59.70
2017-11-15T03:51:51.315Z,62.03
2017-11-15T03:53:53.964Z,58.30
2017-11-15T03:56:00.123Z,58.83
2017-11-15T03:58:02.800Z,58.50
2017-11-15T04:00:05.439Z,61.40
2017-11-15T04:02:08.833Z,53.77
2017-11-15T04:04:12.262Z,61.70
2017-11-15T04:06:14.905Z,65.73
2017-11-15T04:08:17.559Z,55.70
2017-11-15T04:10:20.230Z,57.97
2017-11-15T04:12:22.890Z,59.47
2017-11-15T04:14:25.588Z,60.67
2017-11-15T04:16:28.264Z,54.40
2017-11-15T04:18:31.694Z,64.80
2017-11-15T04:20:35.089Z,60.30
2017-11-15T04:22:37.791Z,53.07
2017-11-15T04:24:40.472Z,61.37
2017-11-15T04:26:43.136Z,51.13
2017-11-15T04:28:45.841Z,60.77
2017-11-15T04:30:48.477Z,64.23
2017-11-15T04:32:51.140Z,57.27
2017-11-15T04:34:53.826Z,53.80
2017-11-15T04:36:56.468Z,62.83
2017-11-15T04:39:00.166Z,66.63
2017-11-15T04:41:03.671Z,60.90
2017-11-15T04:43:06.365Z,60.40
2017-11-15T04:45:09.025Z,57.13
2017-11-15T04:47:11.672Z,57.07
2017-11-15T04:49:14.354Z,56.83
2017-11-15T04:51:17.754Z,64.03
2017-11-15T04:53:20.442Z,58.70
2017-11-15T04:55:23.103Z,50.23
2017-11-15T04:57:25.754Z,45.67
2017-11-15T04:59:28.449Z,52.30
2017-11-15T05:01:31.872Z,49.67
2017-11-15T05:03:34.558Z,55.50
2017-11-15T05:05:37.183Z,51.00
2017-11-15T05:07:40.613Z,55.43
2017-11-15T05:09:43.256Z,50.63
2017-11-15T05:11:46.671Z,54.80
2017-11-15T05:13:49.365Z,51.67
2017-11-15T05:15:52.043Z,60.13
2017-11-15T05:17:54.721Z,49.80
2017-11-15T05:19:57.382Z,55.20
2017-11-15T05:22:00.071Z,59.57
2017-11-15T05:24:02.755Z,53.30
2017-11-15T05:26:05.444Z,54.83
2017-11-15T05:28:08.150Z,58.90
2017-11-15T05:30:11.579Z,57.37
2017-11-15T05:32:14.243Z,52.37
2017-11-15T05:34:16.901Z,56.60
2017-11-15T05:36:19.563Z,55.70
2017-11-15T05:38:23.017Z,59.23
2017-11-15T05:40:25.702Z,52.97
2017-11-15T05:42:28.386Z,49.93
2017-11-15T05:44:31.060Z,61.30
2017-11-15T05:46:33.709Z,55.80
2017-11-15T05:48:36.373Z,59.70
2017-11-15T05:50:39.029Z,50.43
2017-11-15T05:52:42.535Z,51.77
2017-11-15T05:54:45.189Z,56.77
2017-11-15T05:56:48.602Z,61.60
2017-11-15T05:58:52.030Z,57.90
2017-11-15T06:00:54.672Z,51.63
2017-11-15T06:02:57.350Z,56.63
2017-11-15T06:04:59.992Z,52.57
2017-11-15T06:07:03.410Z,56.80
2017-11-15T06:09:06.105Z,55.47
2017-11-15T06:11:08.851Z,55.67
2017-11-15T06:13:11.421Z,55.67
2017-11-15T06:15:14.178Z,55.40
2017-11-15T06:17:16.805Z,50.33
2017-11-15T06:19:19.474Z,53.23
2017-11-15T06:21:22.201Z,50.47
2017-11-15T06:23:25.733Z,53.20
2017-11-15T06:25:28.374Z,52.07
2017-11-15T06:27:31.829Z,52.90
2017-11-15T06:29:34.554Z,56.73
2017-11-15T06:31:37.236Z,54.10
2017-11-15T06:33:39.918Z,57.53
2017-11-15T06:35:43.980Z,54.57
2017-11-15T06:37:52.386Z,52.47
2017-11-15T06:39:57.661Z,57.27
2017-11-15T06:42:00.323Z,56.27
2017-11-15T06:44:06.482Z,56.20
2017-11-15T06:46:09.916Z,58.00
2017-11-15T06:48:12.602Z,56.40
2017-11-15T06:50:15.256Z,50.97
2017-11-15T06:52:17.917Z,58.43
2017-11-15T06:54:20.606Z,48.73
2017-11-15T06:56:23.241Z,61.03
2017-11-15T06:58:26.675Z,50.33
2017-11-15T07:00:29.378Z,58.97
2017-11-15T07:02:32.023Z,63.30
2017-11-15T07:04:34.686Z,54.53
2017-11-15T07:06:37.342Z,54.90
2017-11-15T07:08:40.847Z,58.77
2017-11-15T07:10:43.479Z,58.17
2017-11-15T07:12:46.171Z,52.07
2017-11-15T07:14:49.646Z,54.10
2017-11-15T07:19:03.702Z,57.57
2017-11-15T07:21:06.360Z,47.17
2017-11-15T07:25:54.572Z,60.40
2017-11-15T07:27:57.349Z,56.63
2017-11-15T07:30:00.034Z,59.47
2017-11-15T07:32:02.692Z,52.60
2017-11-15T07:34:05.369Z,53.63
2017-11-15T07:36:09.309Z,56.53
2017-11-15T07:38:12.062Z,62.30
2017-11-15T07:40:14.942Z,56.47
2017-11-15T07:42:17.610Z,53.97
2017-11-15T07:44:20.324Z,53.60
2017-11-15T07:46:22.992Z,51.97
2017-11-15T07:48:25.664Z,56.87
2017-11-15T07:50:29.324Z,54.60
2017-11-15T07:52:47.736Z,55.57
2017-11-15T07:54:54.446Z,58.00
2017-11-15T07:56:57.964Z,53.13
2017-11-15T07:59:00.735Z,53.27
2017-11-15T08:01:03.507Z,52.90
2017-11-15T08:03:06.288Z,50.53
2017-11-15T08:05:08.956Z,54.47
2017-11-15T08:07:11.623Z,53.77
2017-11-15T08:09:14.488Z,58.70
2017-11-15T08:11:18.390Z,53.03
2017-11-15T08:13:21.842Z,50.33
2017-11-15T08:15:24.517Z,54.77
2017-11-15T08:17:27.304Z,51.80
2017-11-15T08:19:29.984Z,45.90
2017-11-15T08:21:32.669Z,60.30
2017-11-15T08:23:35.356Z,44.33
2017-11-15T08:25:38.063Z,48.33
2017-11-15T08:27:40.730Z,41.77
2017-11-15T08:29:44.175Z,43.30
2017-11-15T08:31:49.718Z,46.07
2017-11-15T08:33:52.480Z,35.90
2017-11-15T08:35:55.453Z,39.33
2017-11-15T08:37:58.133Z,39.33
2017-11-15T08:40:04.210Z,43.73
2017-11-15T08:44:19.517Z,37.43
2017-11-15T08:46:23.841Z,34.80
2017-11-15T08:48:27.524Z,34.20
2017-11-15T08:50:36.325Z,35.20
2017-11-15T08:52:41.359Z,33.60
2017-11-15T08:54:44.125Z,32.03
2017-11-15T08:56:47.591Z,33.80
2017-11-15T08:58:51.054Z,34.30
2017-11-15T09:00:53.761Z,30.93
2017-11-15T09:02:57.278Z,30.67
2017-11-15T09:04:59.945Z,30.30
2017-11-15T09:07:02.611Z,38.30
2017-11-15T09:09:05.379Z,33.07
2017-11-15T09:11:08.800Z,35.30
2017-11-15T09:13:11.464Z,33.20
2017-11-15T09:15:14.258Z,28.20
2017-11-15T09:17:16.911Z,27.83
2017-11-15T09:19:19.618Z,30.53
2017-11-15T09:21:23.529Z,31.87
2017-11-15T09:23:26.864Z,32.63
2017-11-15T09:25:29.950Z,33.80
2017-11-15T09:27:33.323Z,37.73
2017-11-15T09:29:36.960Z,34.63
2017-11-15T09:31:41.011Z,39.27
2017-11-15T09:33:44.503Z,32.43
2017-11-15T09:35:48.674Z,28.20
2017-11-15T09:37:51.389Z,31.27
2017-11-15T09:39:54.138Z,31.40
2017-11-15T09:41:56.798Z,31.67
2017-11-15T09:44:00.309Z,31.10
2017-11-15T09:46:02.999Z,28.57
2017-11-15T09:48:05.650Z,32.57
2017-11-15T09:50:09.161Z,30.00
2017-11-15T09:52:11.848Z,26.97
2017-11-15T09:54:15.236Z,24.57
2017-11-15T09:56:20.450Z,31.10
2017-11-15T09:58:23.894Z,27.47
2017-11-15T10:00:26.649Z,31.77
2017-11-15T10:02:29.299Z,25.30
2017-11-15T10:04:32.758Z,29.90
2017-11-15T10:06:35.452Z,25.70
2017-11-15T10:08:38.140Z,28.13
2017-11-15T10:10:41.554Z,26.30
2017-11-15T10:12:44.213Z,25.37
2017-11-15T10:14:47.737Z,22.37
2017-11-15T10:16:50.400Z,29.73
2017-11-15T10:18:53.096Z,24.30
2017-11-15T10:20:55.756Z,23.63
2017-11-15T10:22:58.673Z,25.80
2017-11-15T10:25:02.764Z,29.00
2017-11-15T10:27:07.506Z,23.73
2017-11-15T10:29:18.325Z,25.23
2017-11-15T10:31:22.164Z,26.23
2017-11-15T10:33:25.239Z,28.03
2017-11-15T10:35:28.048Z,28.73
2017-11-15T10:37:30.727Z,22.20
2017-11-15T10:39:33.419Z,26.37
2017-11-15T10:41:36.248Z,27.63
2017-11-15T10:43:38.926Z,25.80
2017-11-15T10:45:41.631Z,26.40
2017-11-15T10:47:46.278Z,28.40
2017-11-15T10:49:48.964Z,27.00
2017-11-15T10:51:52.402Z,30.23
2017-11-15T10:53:55.086Z,30.57
2017-11-15T10:55:57.762Z,28.00
2017-11-15T10:58:00.550Z,20.73
2017-11-15T11:00:03.277Z,25.40
2017-11-15T11:02:06.776Z,34.30
2017-11-15T11:04:10.298Z,30.10
2017-11-15T11:06:12.974Z,27.13
2017-11-15T11:08:15.680Z,36.60
2017-11-15T11:10:18.379Z,23.97
2017-11-15T11:12:21.101Z,32.83
2017-11-15T11:14:24.099Z,24.00
2017-11-15T11:16:26.784Z,23.53
2017-11-15T11:18:29.485Z,21.43
2017-11-15T11:20:32.186Z,22.80
2017-11-15T11:22:35.673Z,24.70
2017-11-15T11:24:39.206Z,20.93
2017-11-15T11:26:41.875Z,20.90
2017-11-15T11:28:44.553Z,22.10
2017-11-15T11:30:47.261Z,21.07
2017-11-15T11:32:49.929Z,20.67
2017-11-15T11:34:52.609Z,23.23
2017-11-15T11:36:55.256Z,20.20
2017-11-15T11:38:57.906Z,20.33
2017-11-15T11:41:01.436Z,21.33
2017-11-15T11:43:04.152Z,20.80
2017-11-15T11:45:07.534Z,19.53
2017-11-15T11:47:11.494Z,19.77
2017-11-15T11:49:14.638Z,23.83
2017-11-15T11:51:18.826Z,21.93
2017-11-15T11:53:21.941Z,20.67
2017-11-15T11:55:24.630Z,20.00
2017-11-15T11:57:28.098Z,21.07
2017-11-15T11:59:31.798Z,24.30
2017-11-15T12:01:34.467Z,25.10
2017-11-15T12:03:37.174Z,22.33
2017-11-15T12:05:39.946Z,22.90
2017-11-15T12:07:42.681Z,17.47
2017-11-15T12:09:45.358Z,19.37
2017-11-15T12:11:48.023Z,17.80
2017-11-15T12:13:50.800Z,18.03
2017-11-15T12:15:53.484Z,16.53
2017-11-15T12:17:56.158Z,18.63
2017-11-15T12:19:59.216Z,17.60
2017-11-15T12:22:02.349Z,19.00
2017-11-15T12:24:06.179Z,16.80
2017-11-15T12:26:10.601Z,21.63
2017-11-15T12:28:15.218Z,19.93
2017-11-15T12:30:17.999Z,22.90
2017-11-15T12:32:20.715Z,19.53
2017-11-15T12:34:23.410Z,22.43
2017-11-15T12:36:26.195Z,21.20
2017-11-15T12:38:28.894Z,16.93
2017-11-15T12:40:31.650Z,19.13
2017-11-15T12:42:35.129Z,19.10
2017-11-15T12:44:38.980Z,17.47
2017-11-15T12:46:42.842Z,18.67
2017-11-15T12:48:46.344Z,19.77
2017-11-15T12:50:49.028Z,17.33
2017-11-15T12:52:51.694Z,18.47
2017-11-15T12:54:54.404Z,16.93
2017-11-15T12:56:57.113Z,16.13
2017-11-15T12:59:00.655Z,16.23
2017-11-15T13:01:03.340Z,17.80
2017-11-15T13:03:05.999Z,16.10
2017-11-15T13:05:08.657Z,12.70
2017-11-15T13:07:11.325Z,13.87
2017-11-15T13:09:14.113Z,15.10
2017-11-15T13:11:17.762Z,23.40
2017-11-15T13:13:20.602Z,17.87
2017-11-15T13:15:23.366Z,15.00
2017-11-15T13:17:26.084Z,14.67
2017-11-15T13:19:28.793Z,15.20
2017-11-15T13:21:32.316Z,19.67
2017-11-15T13:23:35.031Z,13.30
2017-11-15T13:25:37.749Z,13.73
2017-11-15T13:27:40.669Z,15.53
2017-11-15T13:29:43.363Z,12.23
2017-11-15T13:31:46.026Z,16.80
2017-11-15T13:33:48.828Z,14.67
2017-11-15T13:35:51.632Z,19.57
2017-11-15T13:37:54.474Z,16.20
2017-11-15T13:39:57.160Z,19.80
2017-11-15T13:41:59.810Z,17.27
2017-11-15T13:44:02.492Z,21.70
2017-11-15T13:46:05.207Z,20.73
2017-11-15T13:48:07.901Z,21.33
2017-11-15T13:50:11.364Z,19.80
2017-11-15T13:52:14.062Z,18.73
2017-11-15T13:54:16.740Z,24.60
2017-11-15T13:56:19.426Z,24.07
2017-11-15T13:58:22.879Z,28.43
2017-11-15T14:00:25.744Z,36.50
2017-11-15T14:02:28.407Z,25.33
2017-11-15T14:04:31.701Z,37.30
2017-11-15T14:06:34.896Z,29.00
2017-11-15T14:08:37.576Z,24.90
2017-11-15T14:10:42.118Z,23.97
2017-11-15T14:12:48.262Z,21.73
2017-11-15T14:14:51.487Z,26.07
2017-11-15T14:16:54.754Z,33.27
2017-11-15T14:18:58.508Z,25.67
2017-11-15T14:21:01.228Z,29.70
2017-11-15T14:23:04.100Z,29.50
2017-11-15T14:25:06.784Z,26.27
2017-11-15T14:27:09.466Z,39.10
2017-11-15T14:29:12.126Z,29.93
2017-11-15T14:31:14.804Z,29.57
2017-11-15T14:33:17.498Z,34.73
2017-11-15T14:35:20.343Z,29.07
2017-11-15T14:37:23.988Z,29.50
2017-11-15T14:39:26.684Z,28.63
2017-11-15T14:41:30.106Z,36.20
2017-11-15T14:43:32.787Z,35.40
2017-11-15T14:45:35.489Z,39.83
2017-11-15T14:47:38.158Z,32.03
2017-11-15T14:49:40.857Z,31.07
2017-11-15T14:51:43.609Z,34.00
2017-11-15T14:53:46.306Z,41.93
2017-11-15T14:55:48.986Z,41.43
2017-11-15T14:57:51.657Z,43.07
2017-11-15T14:59:54.333Z,41.30
2017-11-15T15:01:56.997Z,38.10
2017-11-15T15:03:59.680Z,42.60
2017-11-15T15:06:02.381Z,62.37
2017-11-15T15:08:05.046Z,43.50
2017-11-15T15:10:07.716Z,38.67
2017-11-15T15:12:10.404Z,33.10
2017-11-15T15:14:13.055Z,52.77
2017-11-15T15:16:15.726Z,36.63
2017-11-15T15:18:18.523Z,37.07
2017-11-15T15:20:21.273Z,43.33
2017-11-15T15:22:23.958Z,44.70
2017-11-15T15:24:26.654Z,34.90
2017-11-15T15:26:29.321Z,39.03
2017-11-15T15:28:32.073Z,38.53
2017-11-15T15:30:34.853Z,35.70
2017-11-15T15:32:37.515Z,38.20
2017-11-15T15:34:40.223Z,34.87
2017-11-15T15:36:42.900Z,40.97
2017-11-15T15:38:45.565Z,45.83
2017-11-15T15:40:48.256Z,35.10
2017-11-15T15:42:50.916Z,35.10
2017-11-15T15:44:53.619Z,53.27
2017-11-15T15:46:56.288Z,47.53
2017-11-15T15:48:59.038Z,54.33
2017-11-15T15:51:01.740Z,60.17
2017-11-15T15:53:04.397Z,58.00
2017-11-15T15:55:07.162Z,78.63
2017-11-15T15:57:09.851Z,55.67
2017-11-15T15:59:12.534Z,53.10
2017-11-15T16:01:15.175Z,53.73
2017-11-15T16:03:17.853Z,105.07
2017-11-15T16:05:20.501Z,54.40
2017-11-15T16:07:23.198Z,51.37
2017-11-15T16:09:26.746Z,55.50
2017-11-15T16:11:29.428Z,51.07
2017-11-15T16:13:32.101Z,50.40
2017-11-15T16:15:34.771Z,47.03
2017-11-15T16:17:37.547Z,59.17
2017-11-15T16:19:40.307Z,49.60
2017-11-15T16:21:43.005Z,60.27
2017-11-15T16:23:45.696Z,54.90
2017-11-15T16:25:48.408Z,48.37
2017-11-15T16:27:51.936Z,50.80
2017-11-15T16:29:54.817Z,50.80
2017-11-15T16:31:57.511Z,49.63
2017-11-15T16:34:00.395Z,55.63
2017-11-15T16:36:03.129Z,50.17
2017-11-15T16:38:05.812Z,54.73
2017-11-15T16:40:08.506Z,58.83
2017-11-15T16:42:11.185Z,51.73
2017-11-15T16:44:13.986Z,61.10
2017-11-15T16:46:16.694Z,54.63
2017-11-15T16:48:20.276Z,49.40
2017-11-15T16:50:22.956Z,58.87
2017-11-15T16:52:25.618Z,57.33
2017-11-15T16:54:28.302Z,68.97
2017-11-15T16:56:30.969Z,62.77
2017-11-15T16:58:33.632Z,71.47
2017-11-15T17:00:36.318Z,73.47
2017-11-15T17:02:38.981Z,65.87
2017-11-15T17:04:41.657Z,73.33
2017-11-15T17:06:44.330Z,72.03
2017-11-15T17:08:47.079Z,61.97
2017-11-15T17:10:49.771Z,63.30
2017-11-15T17:12:52.427Z,63.10
2017-11-15T17:14:55.086Z,54.77
2017-11-15T17:16:58.572Z,60.40
2017-11-15T17:19:01.257Z,71.23
2017-11-15T17:21:04.990Z,78.20
2017-11-15T17:23:07.653Z,77.57
2017-11-15T17:25:10.309Z,72.57
2017-11-15T17:27:13.759Z,64.40
2017-11-15T17:29:16.445Z,65.70
2017-11-15T17:31:19.220Z,67.07
2017-11-15T17:33:21.900Z,60.90
2017-11-15T17:35:24.631Z,67.53
2017-11-15T17:37:27.462Z,71.57
2017-11-15T17:39:30.309Z,63.00
2017-11-15T17:41:33.011Z,86.63
2017-11-15T17:43:35.693Z,60.77
2017-11-15T17:45:38.508Z,61.00
2017-11-15T17:47:42.002Z,70.63
2017-11-15T17:49:57.009Z,65.90
2017-11-15T17:52:04.113Z,67.83
2017-11-15T17:54:07.263Z,71.93
2017-11-15T17:56:09.967Z,81.40
2017-11-15T17:58:12.629Z,82.47
2017-11-15T18:00:15.309Z,110.00
2017-11-15T18:02:18.004Z,75.23
2017-11-15T18:04:20.867Z,101.27
2017-11-15T18:06:23.561Z,100.13
2017-11-15T18:08:27.910Z,95.80
2017-11-15T18:10:31.338Z,115.00
2017-11-15T18:12:34.031Z,124.97
2017-11-15T18:14:36.701Z,102.10
2017-11-15T18:16:39.704Z,116.43
2017-11-15T18:18:42.362Z,110.03
2017-11-15T18:20:45.042Z,97.43
2017-11-15T18:22:47.712Z,118.30
2017-11-15T18:24:50.583Z,124.47
2017-11-15T18:26:53.356Z,98.33
2017-11-15T18:28:56.068Z,130.53
2017-11-15T18:30:58.763Z,125.97
2017-11-15T18:33:02.236Z,119.50
2017-11-15T18:35:04.913Z,131.40
2017-11-15T18:37:07.597Z,117.53
2017-11-15T18:39:10.259Z,122.27
2017-11-15T18:41:12.957Z,123.77
2017-11-15T18:43:15.769Z,132.00
2017-11-15T18:45:19.497Z,110.63
2017-11-15T18:47:22.185Z,111.87
2017-11-15T18:49:25.059Z,110.20
2017-11-15T18:51:28.155Z,111.00
2017-11-15T18:53:33.116Z,159.33
2017-11-15T18:55:35.963Z,117.00
2017-11-15T18:57:38.654Z,124.87
2017-11-15T18:59:41.307Z,140.30
2017-11-15T19:01:44.135Z,123.93
2017-11-15T19:03:46.807Z,162.13
2017-11-15T19:05:49.458Z,118.27
2017-11-15T19:07:52.154Z,153.03
2017-11-15T19:09:55.703Z,130.57
2017-11-15T19:11:59.305Z,131.93
2017-11-15T19:14:02.427Z,141.43
2017-11-15T19:16:06.624Z,128.20
2017-11-15T19:18:09.378Z,116.33
2017-11-15T19:20:12.045Z,122.67
2017-11-15T19:22:14.734Z,125.77
2017-11-15T19:24:17.498Z,114.50
2017-11-15T19:26:20.294Z,130.17
2017-11-15T19:28:23.021Z,135.37
2017-11-15T19:30:25.837Z,127.27
2017-11-15T19:32:28.514Z,125.50
2017-11-15T19:34:31.189Z,156.53
2017-11-15T19:36:33.918Z,124.73
2017-11-15T19:38:36.765Z,143.90
2017-11-15T19:40:39.602Z,114.43
2017-11-15T19:42:49.555Z,107.83
2017-11-15T19:44:52.239Z,105.10
2017-11-15T19:46:54.931Z,115.27
2017-11-15T19:48:57.581Z,108.77
2017-11-15T19:51:01.639Z,136.77
2017-11-15T19:53:04.816Z,107.47
2017-11-15T19:55:08.514Z,118.33
2017-11-15T19:57:11.208Z,117.90
2017-11-15T19:59:14.001Z,116.87
2017-11-15T20:01:17.164Z,144.70
2017-11-15T20:03:20.055Z,128.73
2017-11-15T20:05:22.814Z,120.73
2017-11-15T20:07:25.614Z,155.37
2017-11-15T20:09:28.282Z,137.60
2017-11-15T20:11:31.075Z,153.93
2017-11-15T20:13:33.729Z,135.73
2017-11-15T20:15:37.706Z,161.93
2017-11-15T20:17:40.690Z,149.77
2017-11-15T20:19:45.553Z,159.57
2017-11-15T20:21:48.304Z,150.07
2017-11-15T20:23:51.623Z,128.07
2017-11-15T20:25:54.643Z,158.50
2017-11-15T20:28:00.083Z,179.47
2017-11-15T20:30:03.623Z,167.00
2017-11-15T20:32:07.665Z,170.20
2017-11-15T20:34:10.786Z,152.93
2017-11-15T20:36:14.243Z,146.93
2017-11-15T20:38:16.916Z,211.30
2017-11-15T20:40:20.912Z,159.57
2017-11-15T20:42:23.591Z,252.23
2017-11-15T20:44:26.904Z,148.60
2017-11-15T20:46:30.851Z,145.00
2017-11-15T20:48:33.518Z,177.23
2017-11-15T20:50:37.021Z,188.90
2017-11-15T20:52:42.924Z,146.20
2017-11-15T20:54:45.611Z,165.70
2017-11-15T20:56:48.608Z,127.93
2017-11-15T20:58:53.129Z,152.83
2017-11-15T21:00:56.777Z,146.17
2017-11-15T21:02:59.477Z,126.37
2017-11-15T21:05:02.145Z,143.37
2017-11-15T21:07:04.842Z,124.00
2017-11-15T21:09:07.557Z,135.07
2017-11-15T21:11:10.993Z,134.60
2017-11-15T21:13:13.788Z,134.97
2017-11-15T21:15:17.406Z,128.93
2017-11-15T21:17:20.385Z,131.17
2017-11-15T21:19:25.365Z,125.40
2017-11-15T21:24:34.167Z,117.27
2017-11-15T21:26:37.632Z,157.13
2017-11-15T21:28:41.376Z,140.87
2017-11-15T21:30:45.063Z,122.00
2017-11-15T21:32:48.522Z,109.17
2017-11-15T21:34:51.376Z,125.57
2017-11-15T21:36:54.086Z,99.67
2017-11-15T21:38:56.733Z,94.57
2017-11-15T21:40:59.387Z,107.57
2017-11-15T21:43:02.086Z,104.33
2017-11-15T21:45:04.795Z,95.93
2017-11-15T21:47:07.654Z,86.90
2017-11-15T21:49:10.417Z,84.30
2017-11-15T21:51:13.096Z,82.90
2017-11-15T21:53:15.771Z,84.60
2017-11-15T21:55:18.444Z,75.53
2017-11-15T21:57:21.127Z,83.13
2017-11-15T21:59:23.798Z,68.93
2017-11-15T22:01:26.484Z,71.53
2017-11-15T22:03:29.320Z,93.03
2017-11-15T22:05:32.981Z,69.43
2017-11-15T22:07:35.856Z,80.17
2017-11-15T22:09:38.527Z,78.10
2017-11-15T22:11:41.227Z,65.00
2017-11-15T22:13:43.883Z,67.03
2017-11-15T22:15:46.559Z,75.07
2017-11-15T22:17:49.241Z,63.77
2017-11-15T22:19:51.895Z,68.77
2017-11-15T22:21:54.805Z,63.47
2017-11-15T22:24:10.114Z,58.13
2017-11-15T22:26:13.552Z,67.30
2017-11-15T22:28:16.244Z,61.67
2017-11-15T22:30:18.910Z,59.13
2017-11-15T22:32:21.583Z,51.10
2017-11-15T22:34:24.297Z,61.70
2017-11-15T22:36:26.964Z,51.17
2017-11-15T22:38:29.640Z,43.60
2017-11-15T22:40:32.298Z,53.00
2017-11-15T22:42:35.002Z,52.23
2017-11-15T22:44:37.646Z,50.93
2017-11-15T22:46:40.400Z,50.43
2017-11-15T22:48:43.099Z,46.13
2017-11-15T22:50:45.787Z,44.53
2017-11-15T22:52:48.477Z,51.70
2017-11-15T22:54:51.210Z,54.53
2017-11-15T22:56:53.886Z,51.60
2017-11-15T22:58:56.574Z,43.87
2017-11-15T23:00:59.252Z,62.93
2017-11-15T23:03:01.915Z,53.97
2017-11-15T23:05:04.805Z,49.57
2017-11-15T23:07:07.493Z,48.97
2017-11-15T23:09:10.249Z,47.47
2017-11-15T23:11:12.911Z,46.30
2017-11-15T23:13:15.603Z,53.17
2017-11-15T23:15:18.267Z,52.33
2017-11-15T23:17:20.948Z,49.80
2017-11-15T23:19:23.642Z,51.03
2017-11-15T23:21:26.316Z,47.73
2017-11-15T23:23:29.009Z,44.90
2017-11-15T23:25:31.691Z,51.63
2017-11-15T23:27:34.368Z,47.33
2017-11-15T23:29:37.036Z,46.53
2017-11-15T23:31:39.699Z,52.30
2017-11-15T23:33:42.378Z,56.27
2017-11-15T23:35:45.050Z,47.20
2017-11-15T23:37:47.725Z,45.90
2017-11-15T23:39:50.446Z,45.27
2017-11-15T23:41:53.101Z,54.10
2017-11-15T23:43:55.863Z,53.07
2017-11-15T23:45:58.517Z,44.43
2017-11-15T23:48:01.200Z,46.87
2017-11-15T23:50:03.914Z,51.47
2017-11-15T23:52:06.593Z,51.77
2017-11-15T23:54:09.263Z,50.53
2017-11-15T23:56:11.932Z,43.93
2017-11-15T23:58:14.621Z,59.87
